Estación de Mayorquina

Ultimos registro cada 15 minutos 51
Estación Fecha / Hora Temperatura Humedad Lluvia Velocidad Dirección Radiación Presion
51 Mayorquina 10-05-2026 12:30 17,4 75 0 0,9 242 606 1014
50 Mayorquina 10-05-2026 12:15 16,6 76 0 0 29 605 1014,2
49 Mayorquina 10-05-2026 12:00 16,1 79 0 0,4 350 598 1014,6
48 Mayorquina 10-05-2026 11:45 15,2 84 0 0,4 220 585 1014,8
47 Mayorquina 10-05-2026 11:30 14,5 90 0 1,8 260 633 1015
46 Mayorquina 10-05-2026 11:15 13,5 92 0 0,4 239 209 1015
45 Mayorquina 10-05-2026 11:00 12,7 94 0 1,3 262 287 1015
44 Mayorquina 10-05-2026 10:45 12,2 94 0 1,8 256 239 1015
43 Mayorquina 10-05-2026 10:30 11,8 94 0 2,7 289 186 1015
42 Mayorquina 10-05-2026 10:15 11,7 94 0 0,4 220 151 1015
41 Mayorquina 10-05-2026 10:00 11,4 95 0 0,4 213 153 1015
40 Mayorquina 10-05-2026 09:45 11,4 95 0 0 312 146 1015
39 Mayorquina 10-05-2026 09:30 11 95 0 0 343 146 1014,7
38 Mayorquina 10-05-2026 09:15 10,3 95 0 0 78 130 1014,7
37 Mayorquina 10-05-2026 09:00 9,3 95 0 0 78 104 1014,8
36 Mayorquina 10-05-2026 08:45 8,3 95 0 0 78 77 1015
35 Mayorquina 10-05-2026 08:30 7,4 95 0 0 78 58 1014,6
34 Mayorquina 10-05-2026 08:15 6,1 95 0 0 43 51 1014,5
33 Mayorquina 10-05-2026 08:00 4,6 95 0 0 43 40 1014,3
32 Mayorquina 10-05-2026 07:45 3,1 93 0 0 43 44 1014,2
31 Mayorquina 10-05-2026 07:30 2,7 93 0 0 43 19 1014,1
30 Mayorquina 10-05-2026 07:15 2,8 93 0 0 43 5 1013,7
29 Mayorquina 10-05-2026 07:00 2,8 93 0 0 43 0 1013,5
28 Mayorquina 10-05-2026 06:45 2,8 92 0 0 43 0 1013,3
27 Mayorquina 10-05-2026 06:30 2,9 92 0 0 43 0 1013
26 Mayorquina 10-05-2026 06:15 3,1 92 0 0 43 0 1012,7
25 Mayorquina 10-05-2026 06:00 3,3 92 0 0 43 0 1012,7
24 Mayorquina 10-05-2026 05:45 3,4 92 0 0 43 0 1012,4
23 Mayorquina 10-05-2026 05:30 3,9 92 0 0 43 0 1012,3
22 Mayorquina 10-05-2026 05:15 4,3 92 0 0 43 0 1012,3
21 Mayorquina 10-05-2026 05:00 4,6 92 0 0 43 0 1012
20 Mayorquina 10-05-2026 04:45 5,1 92 0 0 46 0 1011,8
19 Mayorquina 10-05-2026 04:30 5,1 92 0 0 46 0 1011,7
18 Mayorquina 10-05-2026 04:15 5,2 91 0 0 46 0 1011,8
17 Mayorquina 10-05-2026 04:00 6 92 0 0 46 0 1011,9
16 Mayorquina 10-05-2026 03:45 6,1 93 0 0 46 0 1011,8
15 Mayorquina 10-05-2026 03:30 5,1 92 0 0 33 0 1011,8
14 Mayorquina 10-05-2026 03:15 4,9 92 0 0 33 0 1011,9
13 Mayorquina 10-05-2026 03:00 5,2 91 0 0 33 0 1011,9
12 Mayorquina 10-05-2026 02:45 5,4 92 0 0 33 0 1012,1
11 Mayorquina 10-05-2026 02:30 5,4 91 0 0 33 0 1012,1
10 Mayorquina 10-05-2026 02:15 5,8 91 0 0 33 0 1012,3
9 Mayorquina 10-05-2026 02:00 6,1 91 0 0 33 0 1012,4
8 Mayorquina 10-05-2026 01:45 6,5 90 0 0 33 0 1012,4
7 Mayorquina 10-05-2026 01:30 7,1 90 0 0 33 0 1012,3
6 Mayorquina 10-05-2026 01:15 7,7 91 0 0 33 0 1012,3
5 Mayorquina 10-05-2026 01:00 8,5 90 0 0 39 0 1012,5
4 Mayorquina 10-05-2026 00:45 9,3 91 0 0 39 0 1012,5
3 Mayorquina 10-05-2026 00:30 9,2 92 0 0 13 0 1012,6
2 Mayorquina 10-05-2026 00:15 9,1 91 0 0 2 0 1012,7
1 Mayorquina 10-05-2026 00:00 9,2 91 0 0 2 0 1012,8